KMRF/MRF METAR and TAF weather

Enter ICAO airport designator
Station Type Date Time Source
KMRF METAR 2024/07/09 16:56 UTC NOAA

KMRF 091656Z AUTO VRB03KT 10SM FEW050 28/14 A3023 RMK AO2 SLP161 T02830139


Station Type Date Time Source
KMRF Decoded METAR 2024/07/09 16:56 UTC NOAA

Marfa, TX, United States (KMRF) 30-22N 104-01W 1481M
Jul 09, 2024 - 12:56 PM EDT / 2024.07.09 1656 UTC
Wind: Variable at 3 MPH (3 KT):0
Visibility: 10 mile(s):0
Sky conditions: mostly clear
Temperature: 82.9 F (28.3 C)
Dew Point: 57.0 F (13.9 C)
Relative Humidity: 41%
Pressure (altimeter): 30.23 in. Hg (1023 hPa)
ob: KMRF 091656Z AUTO VRB03KT 10SM FEW050 28/14 A3023 RMK AO2 SLP161 T02830139
cycle: 17

Station Type Date Time Source
KMRF TAF UTC NOAA

Error!

Example: see airport list